Flight Track Log - Related Links

Times and Time Zones

All times are in EDT time to prevent confusion due to time zone crossing. See the SWA1524 flight status page for this flight to view local times or setup timezone preferences in your user account.

Time Position Orientation Groundspeed Altitude Reporting Facility
EDT Latitude Longitude Course Direction KTS MPH feet Rate Location/Type
Wed 06:42:08 PM 30.2544 -97.8767 306° West 278 320 9,600  Level Houston Center
Wed 06:43:11 PM 30.2722 -97.9767 282° West 295 339 11,500 1,935 Climbing Houston Center
Wed 06:44:00 PM 30.4068 -97.8077 276° West  Level FlightAware Approximate
Wed 06:44:12 PM 30.2939 -98.0861 283° West 341 392 13,600  Level Houston Center
Wed 06:45:00 PM 30.4167 -97.9184 270° West  Level FlightAware Approximate
Wed 06:45:14 PM 30.3194 -98.2033 284° West 367 422 16,300  Level Houston Center
Wed 06:46:00 PM 30.4202 -98.0300 278° West  Level FlightAware Approximate
Wed 06:46:16 PM 30.3483 -98.3264 285° West 386 444 17,500  Level Houston Center
Wed 06:47:18 PM 30.3739 -98.4503 283° West 391 450 20,000 2,448 Climbing Houston Center
Wed 06:48:21 PM 30.4011 -98.5778 284° West 401 461 22,600 2,496 Climbing Houston Center
Wed 06:49:23 PM 30.4292 -98.7072 284° West 407 468 25,200 2,274 Climbing Houston Center
Wed 06:50:25 PM 30.4575 -98.8347 284° West 406 467 27,300 2,419 Climbing Houston Center
Wed 06:51:27 PM 30.4911 -98.9847 285° West 405 466 30,200 2,274 Climbing Houston Center
Wed 06:52:29 PM 30.5158 -99.1083 283° West 394 453 32,000 1,742 Climbing Houston Center
Wed 06:53:31 PM 30.5414 -99.2253 284° West 391 450 33,800 1,935 Climbing Houston Center
Wed 06:54:33 PM 30.5658 -99.3403 284° West 375 432 36,000 1,065 Climbing Houston Center
Wed 06:55:35 PM 30.5889 -99.4511 284° West 359 413 36,000  Level Houston Center
Wed 06:56:38 PM 30.6169 -99.5842 284° West 356 410 36,000  Level Houston Center
Wed 06:57:40 PM 30.6389 -99.6950 283° West 355 409 36,000  Level Houston Center
Wed 06:58:42 PM 30.6625 -99.8056 284° West 355 409 36,000  Level Houston Center
Wed 06:59:44 PM 30.6853 -99.9161 283° West 355 409 36,000  Level Houston Center
Wed 07:00:46 PM 30.7069 -100.0253 283° West 351 404 36,000  Level Houston Center
Wed 07:01:48 PM 30.7342 -100.1561 284° West 350 403 36,000  Level Houston Center
Wed 07:02:50 PM 30.7561 -100.2658 283° West 350 403 36,000  Level Houston Center
Wed 07:03:52 PM 30.7778 -100.3758 283° West 351 404 36,000  Level Houston Center
Wed 07:04:54 PM 30.8000 -100.4836 284° West 349 402 36,000  Level Houston Center
Wed 07:05:57 PM 30.8219 -100.5919 283° West 347 399 36,000  Level Houston Center
Wed 07:06:59 PM 30.8467 -100.7244 282° West 350 403 36,000  Level Houston Center
Wed 07:08:01 PM 30.8697 -100.8297 284° West 341 392 36,000  Level Houston Center
Wed 07:09:03 PM 30.8900 -100.9381 282° West 342 394 36,000  Level Houston Center
Wed 07:10:05 PM 30.9100 -101.0461 282° West 341 392 36,000  Level Houston Center
Wed 07:11:07 PM 30.9317 -101.1522 283° West 339 390 36,000  Level Houston Center
Wed 07:12:09 PM 30.9583 -101.2775 284° West 335 386 36,000  Level Houston Center
Wed 07:13:11 PM 30.9789 -101.3889 282° West 341 392 36,000  Level Houston Center
Wed 07:14:13 PM 30.9989 -101.5011 282° West 351 404 36,000  Level Houston Center
Wed 07:15:07 PM 31.0153 -101.5872 283° West 348 400 36,000  Level Albuquerque Center
Wed 07:16:09 PM 31.0356 -101.6978 282° West 348 400 36,000  Level Albuquerque Center
Wed 07:17:10 PM 31.0600 -101.8267 283° West 343 395 36,000  Level Albuquerque Center
Wed 07:18:12 PM 31.0800 -101.9375 282° West 344 396 36,000  Level Albuquerque Center
Wed 07:19:14 PM 31.1011 -102.0481 283° West 348 400 36,000  Level Albuquerque Center
Wed 07:20:15 PM 31.1200 -102.1553 282° West 341 392 36,000  Level Albuquerque Center
Wed 07:21:17 PM 31.1411 -102.2633 283° West 341 392 36,000  Level Albuquerque Center
Wed 07:22:18 PM 31.1603 -102.3719 282° West 342 394 36,000  Level Albuquerque Center
Wed 07:23:20 PM 31.1808 -102.4792 283° West 339 390 36,000  Level Albuquerque Center
Wed 07:24:22 PM 31.2003 -102.5908 282° West 336 387 36,000  Level Albuquerque Center
Wed 07:25:23 PM 31.2197 -102.6983 282° West 336 387 36,000  Level Albuquerque Center
Wed 07:26:25 PM 31.2394 -102.8069 282° West 340 391 36,000  Level Albuquerque Center
Wed 07:27:27 PM 31.2589 -102.9142 282° West 339 390 36,000  Level Albuquerque Center
Wed 07:28:28 PM 31.2814 -103.0428 282° West 338 389 36,000  Level Albuquerque Center
Wed 07:29:30 PM 31.3011 -103.1489 282° West 337 388 36,000  Level Albuquerque Center
Wed 07:30:32 PM 31.3192 -103.2556 281° West 336 387 36,000  Level Albuquerque Center
Wed 07:31:33 PM 31.3375 -103.3617 281° West 334 384 36,000  Level Albuquerque Center
Wed 07:32:35 PM 31.3564 -103.4678 282° West 333 383 36,000  Level Albuquerque Center
Wed 07:33:37 PM 31.3736 -103.5747 281° West 334 384 36,000  Level Albuquerque Center
Wed 07:34:38 PM 31.3925 -103.6803 282° West 332 382 36,000  Level Albuquerque Center
Wed 07:35:40 PM 31.4111 -103.7919 281° West 333 383 36,000  Level Albuquerque Center
Wed 07:36:42 PM 31.4311 -103.8997 282° West 338 389 36,000  Level Albuquerque Center
Wed 07:37:44 PM 31.4533 -104.0294 281° West 340 391 36,000  Level Albuquerque Center
Wed 07:38:45 PM 31.4708 -104.1378 281° West 339 390 36,000  Level Albuquerque Center
Wed 07:39:47 PM 31.4892 -104.2464 281° West 341 392 36,000  Level Albuquerque Center
Wed 07:40:49 PM 31.5083 -104.3556 282° West 343 395 36,000  Level Albuquerque Center
Wed 07:41:50 PM 31.5258 -104.4631 281° West 339 390 36,000  Level Albuquerque Center
Wed 07:42:52 PM 31.5453 -104.5703 282° West 338 389 36,000  Level Albuquerque Center
Wed 07:43:53 PM 31.5622 -104.6781 280° West 338 389 36,000  Level Albuquerque Center
Wed 07:44:55 PM 31.5836 -104.8072 281° West 338 389 36,000  Level Albuquerque Center
Wed 07:45:57 PM 31.6006 -104.9144 281° West 337 388 36,000  Level Albuquerque Center
Wed 07:46:58 PM 31.6264 -105.0183 286° West 334 384 36,000  Level Albuquerque Center
Wed 07:48:00 PM 31.6556 -105.1242 288° West 340 391 36,000 97 Level Albuquerque Center
Wed 07:49:02 PM 31.6839 -105.2311 287° West 343 395 36,200 829 Climbing Albuquerque Center
Wed 07:50:03 PM 31.7125 -105.3381 287° West 345 397 37,700 1,756 Climbing Albuquerque Center
Wed 07:51:05 PM 31.7422 -105.4569 286° West 317 365 39,800 1,113 Climbing Albuquerque Center
Wed 07:52:07 PM 31.7700 -105.5528 289° West 311 358 40,000 98 Climbing Albuquerque Center
Wed 07:53:08 PM 31.7953 -105.6519 287° West 316 364 40,000  Level Albuquerque Center
Wed 07:54:10 PM 31.8208 -105.7486 287° West 311 358 40,000  Level Albuquerque Center
Wed 07:55:12 PM 31.8461 -105.8472 287° West 316 364 40,000  Level Albuquerque Center
Wed 07:56:14 PM 31.8731 -105.9472 288° West 320 368 40,000  Level Albuquerque Center
Wed 07:57:15 PM 31.9025 -106.0594 287° West 325 374 40,000  Level Albuquerque Center
Wed 07:58:17 PM 31.9294 -106.1586 288° West 319 367 40,000  Level Albuquerque Center
Wed 07:59:19 PM 31.9550 -106.2594 287° West 321 369 40,000  Level Albuquerque Center
Wed 08:00:20 PM 31.9808 -106.3572 287° West 314 361 40,000  Level Albuquerque Center
Wed 08:01:22 PM 32.0064 -106.4578 287° West 320 368 40,000  Level Albuquerque Center
Wed 08:02:24 PM 32.0378 -106.5786 287° West 321 369 40,000  Level Albuquerque Center
Wed 08:03:25 PM 32.0636 -106.6781 287° West 319 367 40,000  Level Albuquerque Center
Wed 08:04:28 PM 32.0892 -106.7767 287° West 315 362 40,000  Level Albuquerque Center
Wed 08:05:29 PM 32.1139 -106.8756 286° West 315 362 40,000  Level Albuquerque Center
Wed 08:06:31 PM 32.1392 -106.9756 287° West 317 365 40,000  Level Albuquerque Center
Wed 08:07:32 PM 32.1644 -107.0761 287° West 318 366 40,000  Level Albuquerque Center
Wed 08:08:35 PM 32.1931 -107.1856 287° West 322 371 40,000  Level Albuquerque Center
Wed 08:09:36 PM 32.2128 -107.2889 283° West 331 381 40,000  Level Albuquerque Center
Wed 08:10:37 PM 32.2381 -107.3914 286° West 331 381 40,000  Level Albuquerque Center
Wed 08:11:39 PM 32.2697 -107.5144 287° West 329 379 40,000  Level Albuquerque Center
Wed 08:12:41 PM 32.2972 -107.6167 288° West 328 377 40,000  Level Albuquerque Center
Wed 08:13:42 PM 32.3225 -107.7222 286° West 331 381 40,000  Level Albuquerque Center
Wed 08:14:44 PM 32.3472 -107.8275 286° West 332 382 40,000  Level Albuquerque Center
Wed 08:15:46 PM 32.3728 -107.9333 286° West 334 384 40,000  Level Albuquerque Center
Wed 08:16:48 PM 32.4000 -108.0397 287° West 337 388 40,000  Level Albuquerque Center
Wed 08:17:49 PM 32.4258 -108.1464 286° West 338 389 40,000  Level Albuquerque Center
Wed 08:18:51 PM 32.4539 -108.2664 286° West 336 387 40,000  Level Albuquerque Center
Wed 08:19:53 PM 32.4806 -108.3736 286° West 340 391 40,000  Level Albuquerque Center
Wed 08:20:54 PM 32.5053 -108.4822 285° West 344 396 40,000  Level Albuquerque Center
Wed 08:21:56 PM 32.5311 -108.5919 286° West 346 398 40,000  Level Albuquerque Center
Wed 08:22:58 PM 32.5575 -108.7022 286° West 348 400 40,000  Level Albuquerque Center
Wed 08:24:00 PM 32.5889 -108.8336 286° West 347 399 40,000  Level Albuquerque Center
Wed 08:25:01 PM 32.6139 -108.9417 285° West 343 395 40,000  Level Albuquerque Center
Wed 08:26:03 PM 32.6386 -109.0500 285° West 341 392 40,000  Level Albuquerque Center
Wed 08:27:05 PM 32.6639 -109.1597 285° West 344 396 40,000  Level Albuquerque Center
Wed 08:28:06 PM 32.6894 -109.2711 285° West 348 400 40,000  Level Albuquerque Center
Wed 08:29:08 PM 32.7158 -109.3808 286° West 348 400 40,000  Level Albuquerque Center
Wed 08:30:09 PM 32.7408 -109.4931 285° West 351 404 40,000  Level Albuquerque Center
Wed 08:31:11 PM 32.7719 -109.6261 286° West 351 404 40,000  Level Albuquerque Center
Wed 08:32:13 PM 32.7967 -109.7378 285° West 351 404 40,000  Level Albuquerque Center
Wed 08:33:14 PM 32.8222 -109.8506 285° West 354 407 40,000  Level Albuquerque Center
Wed 08:34:16 PM 32.8475 -109.9656 285° West 359 413 40,000  Level Albuquerque Center
Wed 08:35:18 PM 32.8783 -110.0831 287° West 372 428 40,000  Level Albuquerque Center
Wed 08:36:20 PM 32.9022 -110.1983 284° West 366 421 40,000  Level Albuquerque Center
Wed 08:37:21 PM 32.9425 -110.3358 289° West 368 423 40,000  Level Albuquerque Center
Wed 08:38:23 PM 32.9753 -110.4486 289° West 365 420 40,000  Level Albuquerque Center
Wed 08:39:25 PM 33.0092 -110.5617 290° West 365 420 40,000  Level Albuquerque Center
Wed 08:40:26 PM 33.0431 -110.6861 288° West 366 421 40,000  Level Albuquerque Center
Wed 08:41:28 PM 33.0767 -110.8017 289° West 368 423 40,000  Level Albuquerque Center
Wed 08:42:30 PM 33.1103 -110.9178 289° West 370 426 40,000  Level Albuquerque Center
Wed 08:43:31 PM 33.1422 -111.0342 288° West 370 426 40,000  Level Albuquerque Center
Wed 08:44:33 PM 33.1747 -111.1508 288° West 371 427 40,000  Level Albuquerque Center
Wed 08:45:35 PM 33.2081 -111.2683 289° West 373 429 40,000  Level Albuquerque Center
Wed 08:46:36 PM 33.2408 -111.3878 288° West 376 433 40,000  Level Albuquerque Center
Wed 08:47:38 PM 33.2811 -111.5339 288° West 383 441 40,000  Level Albuquerque Center
Wed 08:48:40 PM 33.3142 -111.6578 288° West 388 447 40,000  Level Albuquerque Center
Wed 08:49:41 PM 33.3500 -111.7822 289° West 392 451 40,000  Level Albuquerque Center
Wed 08:50:43 PM 33.3831 -111.9069 288° West 394 453 40,000  Level Albuquerque Center
Wed 08:51:45 PM 33.4167 -112.0311 288° West 392 451 40,000  Level Albuquerque Center
Wed 08:52:47 PM 33.4506 -112.1542 288° West 389 448 40,000  Level Albuquerque Center
Wed 08:53:48 PM 33.4836 -112.2792 288° West 391 450 40,000  Level Albuquerque Center
Wed 08:54:50 PM 33.5167 -112.4050 288° West 394 453 40,000  Level Albuquerque Center
Wed 08:55:52 PM 33.5572 -112.5578 288° West 398 458 40,000  Level Albuquerque Center
Wed 08:56:53 PM 33.5925 -112.6889 288° West 399 459 40,000  Level Albuquerque Center
Wed 08:57:55 PM 33.6267 -112.8161 288° West 401 461 40,000  Level Albuquerque Center
Wed 08:58:56 PM 33.6589 -112.9414 287° West 403 464 40,000  Level Albuquerque Center
Wed 08:59:58 PM 33.6922 -113.0681 288° West 399 459 40,000  Level Albuquerque Center
Wed 09:01:00 PM 33.7261 -113.1964 288° West 401 461 40,000  Level Albuquerque Center
Wed 09:02:01 PM 33.7572 -113.3244 286° West 401 461 40,000  Level Albuquerque Center
Wed 09:03:03 PM 33.7897 -113.4539 287° West 403 464 40,000  Level Albuquerque Center
Wed 09:04:04 PM 33.8297 -113.6106 287° West 406 467 40,000  Level Albuquerque Center
Wed 09:05:06 PM 33.8636 -113.7406 287° West 407 468 40,000  Level Albuquerque Center
Wed 09:06:07 PM 33.8967 -113.8711 287° West 408 470 40,000  Level Albuquerque Center
Wed 09:07:09 PM 33.9286 -114.0014 286° West 407 468 40,000  Level Albuquerque Center
Wed 09:08:10 PM 33.9658 -114.1303 289° West 406 467 40,000  Level Albuquerque Center
Wed 09:09:12 PM 33.9964 -114.2597 286° West 406 467 40,000  Level Albuquerque Center
Wed 09:10:14 PM 34.0286 -114.3886 287° West 405 466 40,000  Level Albuquerque Center
Wed 09:11:13 PM 34.0578 -114.5008 287° West 405 466 40,000 -99 Level Los Angeles Center
Wed 09:12:15 PM 34.0961 -114.6578 286° West 407 468 39,800 -738 Descending Los Angeles Center
Wed 09:14:20 PM 34.1053 -114.9542 272° West 404 465 37,700 -973 Descending Los Angeles Center
Wed 09:15:20 PM 34.1067 -115.0897 271° West 405 466 36,800 -836 Descending Los Angeles Center
Wed 09:16:22 PM 34.1092 -115.2269 271° West 409 471 36,000 -390 Descending Los Angeles Center
Wed 09:17:23 PM 34.1097 -115.3644 270° West 412 474 36,000  Level Los Angeles Center
Wed 09:18:25 PM 34.1111 -115.5003 271° West 408 470 36,000 -88 Level Los Angeles Center
Wed 09:19:39 PM 34.1117 -115.6650 270° West 410 472 35,800 -533 Descending Los Angeles Center
Wed 09:20:40 PM 34.1086 -115.8019 268° West 410 472 34,800 -1,024 Descending Los Angeles Center
Wed 09:21:42 PM 34.0833 -115.9633 259° West 411 473 33,700 -1,024 Descending Los Angeles Center
Wed 09:22:43 PM 34.0633 -116.0992 260° West 412 474 32,700 -976 Descending Los Angeles Center
Wed 09:23:45 PM 34.0428 -116.2344 260° West 413 475 31,700 -1,403 Descending Los Angeles Center
Wed 09:24:47 PM 34.0228 -116.3664 260° West 404 465 29,800 -2,000 Descending Los Angeles Center
Wed 09:25:48 PM 34.0047 -116.4908 260° West 385 443 27,600 -2,098 Descending Los Angeles Center
Wed 09:26:50 PM 33.9950 -116.6144 265° West 375 432 25,500 -2,081 Descending Los Angeles Center
Wed 09:27:52 PM 33.9856 -116.7392 265° West 375 432 23,300 -2,244 Descending Los Angeles Center
Wed 09:28:53 PM 33.9736 -116.8822 264° West 361 415 20,900 -2,165 Descending Los Angeles Center
Wed 09:29:29 PM 33.9667 -116.9500 263° West 348 400 19,800 -1,912 Descending Southern California TRACON
Wed 09:30:24 PM 33.9500 -117.0667 260° West 364 419 18,000 -1,388 Descending Southern California TRACON
Wed 09:31:30 PM 33.9500 -117.2000 270° West 353 406 17,000 -1,000 Descending Southern California TRACON
Wed 09:32:30 PM 33.9333 -117.3167 260° West 343 395 15,900 -1,714 Descending Southern California TRACON
Wed 09:33:36 PM 33.9500 -117.4333 280° West 344 396 13,400 -2,143 Descending Southern California TRACON
Wed 09:34:36 PM 33.9833 -117.5333 292° West 327 376 11,400 -1,774 Descending Southern California TRACON
Wed 09:35:31 PM 34.0167 -117.6167 296° West 320 368 10,000 -942 Descending Southern California TRACON
Wed 09:36:37 PM 34.0167 -117.7333 270° West 291 335 9,500 -857 Descending Southern California TRACON
Wed 09:37:37 PM 34.0167 -117.8333 270° West 296 341 8,200 -1,300 Descending Southern California TRACON
Wed 09:38:37 PM 34.0000 -117.9167 256° West 283 326 6,900 -1,565 Descending Southern California TRACON
Wed 09:39:32 PM 34.0000 -118.0000 270° West 271 312 5,200 -1,513 Descending Southern California TRACON
Wed 09:40:32 PM 33.9833 -118.0833 256° West 254 292 4,000 -824 Descending Southern California TRACON
Wed 09:41:14 PM 33.9800 -118.1325 265° West 249 287 3,800 -577 Descending Los Angeles Center
Wed 09:42:16 PM 33.9717 -118.2194 263° West 224 258 3,000 -878 Descending Los Angeles Center
Wed 09:43:17 PM 33.9644 -118.2864 263° West 214 246 2,000 -829 Descending Los Angeles Center
Wed 09:44:19 PM 33.9592 -118.3347 263° West 172 198 1,300 -677 Descending Los Angeles Center
Wed 09:45:21 PM 33.9561 -118.3764 265° West 145 167 600 -585 Descending Los Angeles Center
Wed 09:46:22 PM 33.9500 -118.4228 261° West 136 157 100 -492 Descending Los Angeles Center
Wed 09:48:00 PM 33.9425 -118.4081 140° Southeast  Level Estimated

Login

Don't have an account? Register now (free) for customized features, flight alerts, and more!